Time;durP1;ratioP1;P1;durP2;ratioP2;P2;SDS_P1;SDS_P2;PMS_P1;PMS_P2;Temp;Humidity;BMP_temperature;BMP_pressure;BME280_temperature;BME280_humidity;BME280_pressure;Samples;Min_cycle;Max_cycle;Signal;HPM_P1;HPM_P2
2023/07/19 00:01:31;;;;;;;1.90;1.90;;;24.00;70.60;;;;;;5079112;28;43466;-71
2023/07/19 00:03:59;;;;;;;1.80;1.80;;;24.00;70.50;;;;;;5072629;28;43400;-71
2023/07/19 00:06:27;;;;;;;1.93;1.93;;;23.90;70.40;;;;;;5054027;28;46276;-71
2023/07/19 00:08:56;;;;;;;1.80;1.80;;;23.90;70.80;;;;;;5064677;28;44938;-71
2023/07/19 00:11:25;;;;;;;1.90;1.90;;;23.80;70.90;;;;;;5055474;28;43416;-71
2023/07/19 00:13:54;;;;;;;2.00;1.90;;;23.90;71.00;;;;;;5069080;28;44047;-71
2023/07/19 00:16:22;;;;;;;1.70;1.70;;;23.90;71.00;;;;;;5062754;28;45365;-71
2023/07/19 00:18:50;;;;;;;1.80;1.80;;;23.80;70.90;;;;;;5067676;28;44182;-71
2023/07/19 00:21:19;;;;;;;2.00;2.00;;;23.80;71.20;;;;;;5076505;28;43703;-71
2023/07/19 00:23:48;;;;;;;1.80;1.80;;;23.80;71.20;;;;;;5064861;28;43416;-72
2023/07/19 00:26:17;;;;;;;1.87;1.87;;;23.90;70.80;;;;;;5060859;28;45694;-71
2023/07/19 00:28:46;;;;;;;2.17;2.07;;;24.00;70.60;;;;;;5079770;28;43479;-71
2023/07/19 00:31:17;;;;;;;2.03;2.03;;;24.10;70.10;;;;;;5062606;28;44028;-71
2023/07/19 00:33:46;;;;;;;1.90;1.80;;;24.10;69.70;;;;;;5075845;28;44013;-71
2023/07/19 00:36:15;;;;;;;1.83;1.83;;;24.10;69.60;;;;;;5067086;28;45759;-71
2023/07/19 00:38:43;;;;;;;1.80;1.80;;;24.10;69.90;;;;;;5080917;28;43480;-71
2023/07/19 00:41:12;;;;;;;1.93;1.93;;;24.00;70.40;;;;;;5063903;28;43396;-71
2023/07/19 00:43:41;;;;;;;1.90;1.90;;;24.00;70.40;;;;;;5067120;28;43444;-71
2023/07/19 00:46:09;;;;;;;1.80;1.80;;;24.00;70.50;;;;;;5087479;28;43599;-71
2023/07/19 00:48:38;;;;;;;1.60;1.60;;;23.90;70.40;;;;;;5064589;28;43396;-71
2023/07/19 00:51:06;;;;;;;1.80;1.77;;;23.90;70.90;;;;;;5085008;28;43440;-71
2023/07/19 00:53:34;;;;;;;1.70;1.70;;;23.90;71.00;;;;;;5060170;28;43514;-71
2023/07/19 00:56:02;;;;;;;2.00;2.00;;;23.90;70.90;;;;;;5090238;28;43617;-72
2023/07/19 00:58:30;;;;;;;1.87;1.87;;;23.80;70.70;;;;;;5084946;28;43503;-71
2023/07/19 01:00:59;;;;;;;2.00;2.00;;;23.80;71.00;;;;;;5061299;28;43539;-70
2023/07/19 01:03:27;;;;;;;1.90;1.90;;;23.80;71.30;;;;;;5053030;28;43643;-71
2023/07/19 01:05:58;;;;;;;1.73;1.73;;;23.80;71.20;;;;;;5066821;28;45898;-70
2023/07/19 01:08:26;;;;;;;1.87;1.87;;;23.80;71.00;;;;;;5066750;28;43451;-69
2023/07/19 01:10:54;;;;;;;1.77;1.77;;;23.80;71.10;;;;;;5063018;28;43320;-70
2023/07/19 01:13:22;;;;;;;1.97;1.97;;;23.70;71.50;;;;;;5078852;28;43922;-70
2023/07/19 01:15:51;;;;;;;1.80;1.80;;;23.80;71.30;;;;;;5051383;28;45685;-71
2023/07/19 01:18:21;;;;;;;2.10;2.10;;;23.90;70.90;;;;;;5070980;28;44474;-70
2023/07/19 01:20:48;;;;;;;1.80;1.80;;;24.00;70.60;;;;;;5075783;28;43392;-70
2023/07/19 01:23:18;;;;;;;1.73;1.73;;;24.10;70.20;;;;;;5082358;28;43752;-71
2023/07/19 01:25:48;;;;;;;1.90;1.90;;;24.20;69.80;;;;;;5066183;28;45307;-71
2023/07/19 01:28:16;;;;;;;2.00;2.00;;;24.20;69.50;;;;;;5078755;28;43402;-71
2023/07/19 01:30:44;;;;;;;2.20;2.10;;;24.10;69.60;;;;;;5071953;28;43547;-71
2023/07/19 01:33:12;;;;;;;1.70;1.70;;;24.00;70.20;;;;;;5074872;28;43972;-72
2023/07/19 01:35:59;;;;;;;1.73;1.73;;;24.00;70.10;;;;;;5065488;28;45710;-69
2023/07/19 01:38:29;;;;;;;1.80;1.80;;;24.00;70.20;;;;;;5073006;28;43493;-71
2023/07/19 01:40:57;;;;;;;1.67;1.67;;;23.90;70.20;;;;;;5069488;28;43443;-71
2023/07/19 01:43:25;;;;;;;1.93;1.93;;;23.90;70.80;;;;;;5070789;28;44058;-70
2023/07/19 01:45:53;;;;;;;1.80;1.70;;;23.90;70.80;;;;;;5080567;28;43684;-69
2023/07/19 01:48:21;;;;;;;1.80;1.80;;;23.90;70.80;;;;;;5071236;28;43291;-69
2023/07/19 01:50:49;;;;;;;1.80;1.80;;;23.90;70.80;;;;;;5066754;28;43411;-69
2023/07/19 01:53:17;;;;;;;1.77;1.77;;;23.80;71.10;;;;;;5058891;28;43448;-69
2023/07/19 01:55:47;;;;;;;1.80;1.80;;;23.80;71.00;;;;;;5062147;28;43823;-72
2023/07/19 01:58:15;;;;;;;1.90;1.90;;;23.80;71.00;;;;;;5063755;28;44736;-69
2023/07/19 02:00:43;;;;;;;1.90;1.90;;;23.80;70.80;;;;;;5065693;28;43387;-69
2023/07/19 02:03:11;;;;;;;1.83;1.83;;;23.80;71.30;;;;;;5067998;28;43447;-70
2023/07/19 02:05:39;;;;;;;1.70;1.70;;;23.80;71.40;;;;;;5064958;28;45856;-69
2023/07/19 02:08:07;;;;;;;1.80;1.80;;;23.90;71.10;;;;;;5072246;28;44704;-69
2023/07/19 02:10:35;;;;;;;2.00;2.00;;;24.00;70.70;;;;;;5081632;28;43328;-69
2023/07/19 02:13:04;;;;;;;2.00;2.00;;;24.10;70.40;;;;;;5081591;28;43448;-70
2023/07/19 02:15:32;;;;;;;2.00;1.90;;;24.10;69.90;;;;;;5083041;28;43607;-69
2023/07/19 02:18:00;;;;;;;2.00;2.00;;;24.10;69.50;;;;;;5083519;28;43392;-70
2023/07/19 02:20:30;;;;;;;1.70;1.70;;;24.10;69.50;;;;;;5071821;28;43501;-70
2023/07/19 02:22:58;;;;;;;2.00;2.00;;;24.10;69.90;;;;;;5080495;28;43549;-69
2023/07/19 02:25:28;;;;;;;1.80;1.80;;;24.00;70.20;;;;;;5071150;28;46005;-71
2023/07/19 02:27:56;;;;;;;1.87;1.87;;;24.00;70.10;;;;;;5083170;28;43499;-70
2023/07/19 02:30:25;;;;;;;1.90;1.90;;;24.00;70.20;;;;;;5080321;28;43320;-70
2023/07/19 02:32:53;;;;;;;1.97;1.97;;;23.90;70.20;;;;;;5084311;28;43930;-70
2023/07/19 02:35:21;;;;;;;1.60;1.60;;;23.90;70.80;;;;;;5087019;28;43996;-70
2023/07/19 02:37:49;;;;;;;2.00;2.00;;;23.90;70.80;;;;;;5063364;28;44904;-70
2023/07/19 02:40:17;;;;;;;1.90;1.90;;;23.90;70.70;;;;;;5066641;28;43531;-69
2023/07/19 02:42:45;;;;;;;1.80;1.80;;;23.80;70.50;;;;;;5062272;28;43454;-69
2023/07/19 02:45:16;;;;;;;2.00;2.00;;;23.80;70.90;;;;;;5068352;28;45524;-69
2023/07/19 02:47:45;;;;;;;2.03;2.03;;;23.80;71.10;;;;;;5086290;28;43455;-69
2023/07/19 02:50:15;;;;;;;1.90;1.90;;;23.80;71.00;;;;;;5080959;28;43347;-70
2023/07/19 02:52:43;;;;;;;1.80;1.80;;;23.80;70.80;;;;;;5068718;28;44079;-70
2023/07/19 02:55:11;;;;;;;2.00;1.90;;;23.80;70.90;;;;;;5065045;28;43790;-70
2023/07/19 02:57:39;;;;;;;2.40;2.40;;;23.70;71.30;;;;;;5072012;28;43418;-70
2023/07/19 03:00:08;;;;;;;2.00;2.00;;;23.80;71.10;;;;;;5062367;28;43547;-70
2023/07/19 03:02:36;;;;;;;1.80;1.80;;;23.90;70.80;;;;;;5084368;28;43393;-70
2023/07/19 03:05:06;;;;;;;2.00;2.00;;;24.00;70.50;;;;;;5078407;27;43683;-70
2023/07/19 03:07:34;;;;;;;2.10;2.00;;;24.10;70.00;;;;;;5080610;28;43464;-70
2023/07/19 03:10:02;;;;;;;1.90;1.90;;;24.20;69.80;;;;;;5082467;28;43377;-70
2023/07/19 03:12:31;;;;;;;1.80;1.80;;;24.10;69.30;;;;;;5062818;28;43575;-70
2023/07/19 03:14:59;;;;;;;1.70;1.70;;;24.10;69.80;;;;;;5064027;28;45674;-70
2023/07/19 03:17:27;;;;;;;1.90;1.90;;;24.00;70.20;;;;;;5079087;28;43380;-70
2023/07/19 03:19:55;;;;;;;1.70;1.70;;;24.00;70.10;;;;;;5062163;28;43439;-70
2023/07/19 03:22:24;;;;;;;1.83;1.83;;;24.00;70.00;;;;;;5072142;28;43563;-70
2023/07/19 03:24:52;;;;;;;1.80;1.80;;;23.90;70.10;;;;;;5074622;28;43608;-70
2023/07/19 03:27:20;;;;;;;2.10;2.10;;;23.90;70.80;;;;;;5078436;28;43860;-70
2023/07/19 03:29:48;;;;;;;1.70;1.70;;;23.90;70.70;;;;;;5079163;28;43384;-70
2023/07/19 03:32:16;;;;;;;1.90;1.90;;;23.90;70.50;;;;;;5067564;28;43541;-71
2023/07/19 03:34:44;;;;;;;1.80;1.80;;;23.90;70.60;;;;;;5068980;28;45987;-70
2023/07/19 03:37:14;;;;;;;2.10;2.10;;;23.80;71.20;;;;;;5067476;28;43343;-70
2023/07/19 03:39:44;;;;;;;1.60;1.60;;;23.80;71.00;;;;;;5064859;28;43412;-70
2023/07/19 03:42:12;;;;;;;2.00;2.00;;;23.90;70.80;;;;;;5064665;28;44073;-70
2023/07/19 03:44:40;;;;;;;1.97;1.97;;;24.00;70.60;;;;;;5039279;28;45334;-70
2023/07/19 03:47:08;;;;;;;2.07;2.07;;;24.10;70.10;;;;;;5066061;28;44688;-70
2023/07/19 03:49:37;;;;;;;1.90;1.90;;;24.10;69.60;;;;;;5069946;28;43484;-70
2023/07/19 03:52:07;;;;;;;1.90;1.90;;;24.10;69.80;;;;;;5039932;28;43471;-70
2023/07/19 03:54:36;;;;;;;1.80;1.80;;;24.10;70.10;;;;;;5062667;28;46035;-70
2023/07/19 03:57:05;;;;;;;1.90;1.90;;;24.00;70.40;;;;;;5059860;28;44794;-70
2023/07/19 03:59:33;;;;;;;1.97;1.90;;;24.00;70.60;;;;;;5059563;28;43419;-70
2023/07/19 04:02:01;;;;;;;1.90;1.80;;;24.00;70.50;;;;;;5062027;28;43954;-72
2023/07/19 04:04:30;;;;;;;1.77;1.77;;;23.90;70.30;;;;;;5058971;28;46103;-70
2023/07/19 04:06:58;;;;;;;1.90;1.90;;;23.90;70.80;;;;;;5079162;27;44438;-70
2023/07/19 04:09:27;;;;;;;1.90;1.90;;;23.90;70.80;;;;;;5068078;28;43467;-72
2023/07/19 04:11:55;;;;;;;2.00;2.00;;;23.90;70.90;;;;;;5065331;28;43507;-72
2023/07/19 04:14:24;;;;;;;1.87;1.87;;;23.90;70.70;;;;;;5088046;27;46039;-72
2023/07/19 04:16:52;;;;;;;1.90;1.90;;;23.80;71.00;;;;;;5064988;28;45093;-71
2023/07/19 04:19:21;;;;;;;2.23;2.23;;;23.80;71.10;;;;;;5070451;28;43432;-71
2023/07/19 04:21:49;;;;;;;1.90;1.90;;;23.90;71.10;;;;;;5062059;28;43526;-70
2023/07/19 04:24:18;;;;;;;1.80;1.80;;;24.00;70.80;;;;;;5070172;28;45499;-71
2023/07/19 04:26:46;;;;;;;1.67;1.67;;;24.10;70.30;;;;;;5060974;28;44816;-70
2023/07/19 04:29:14;;;;;;;2.00;2.00;;;24.10;69.80;;;;;;5069975;28;44028;-71
2023/07/19 04:31:43;;;;;;;1.93;1.93;;;24.10;69.90;;;;;;5046037;28;43420;-71
2023/07/19 04:34:11;;;;;;;1.83;1.83;;;24.10;69.90;;;;;;5046936;28;45987;-71
2023/07/19 04:36:39;;;;;;;1.90;1.90;;;24.00;70.20;;;;;;5079385;28;43425;-70
2023/07/19 04:39:08;;;;;;;2.00;2.00;;;24.00;70.30;;;;;;5064828;28;43407;-70
2023/07/19 04:41:36;;;;;;;1.90;1.90;;;24.00;70.50;;;;;;5068052;28;43464;-70
2023/07/19 04:44:05;;;;;;;1.90;1.90;;;24.00;70.40;;;;;;5063293;28;43935;-71
2023/07/19 04:46:33;;;;;;;1.83;1.83;;;23.90;70.70;;;;;;5066868;28;44322;-70
2023/07/19 04:49:03;;;;;;;1.83;1.83;;;23.90;70.80;;;;;;5065306;28;43441;-70
2023/07/19 04:51:31;;;;;;;2.27;2.27;;;23.90;70.80;;;;;;5067756;28;43870;-70
2023/07/19 04:53:59;;;;;;;2.00;2.00;;;23.90;70.70;;;;;;5069779;28;45544;-69
2023/07/19 04:56:31;;;;;;;2.20;2.20;;;23.80;70.50;;;;;;5069766;28;44673;-70
2023/07/19 04:59:02;;;;;;;2.43;2.23;;;23.80;70.90;;;;;;5076884;28;43494;-70
2023/07/19 05:01:30;;;;;;;2.43;2.33;;;23.80;70.80;;;;;;5060052;28;43416;-69
2023/07/19 05:03:58;;;;;;;2.60;2.50;;;23.90;70.60;;;;;;5069149;28;43798;-70
2023/07/19 05:06:27;;;;;;;2.50;2.50;;;24.00;70.30;;;;;;5033355;28;44586;-70
2023/07/19 05:08:55;;;;;;;3.00;2.80;;;24.10;70.00;;;;;;5032537;28;43555;-70
2023/07/19 05:11:25;;;;;;;2.70;2.60;;;24.10;69.80;;;;;;5037456;28;43558;-70
2023/07/19 05:13:53;;;;;;;2.67;2.57;;;24.10;69.80;;;;;;5047289;28;43684;-69
2023/07/19 05:16:21;;;;;;;2.70;2.60;;;24.00;70.10;;;;;;5034936;28;44416;-69
2023/07/19 05:18:50;;;;;;;2.73;2.63;;;24.00;70.40;;;;;;5047687;28;43431;-69
2023/07/19 05:21:19;;;;;;;2.80;2.80;;;24.00;70.50;;;;;;5032468;28;43523;-70
2023/07/19 05:23:49;;;;;;;2.57;2.57;;;23.90;70.30;;;;;;5035857;28;45496;-69
2023/07/19 05:26:17;;;;;;;3.03;2.93;;;23.90;70.60;;;;;;5047957;28;43388;-70
2023/07/19 05:28:46;;;;;;;3.23;3.00;;;23.90;70.80;;;;;;5036637;28;43477;-69
2023/07/19 05:31:14;;;;;;;3.90;2.90;;;23.90;70.80;;;;;;5034130;28;43495;-70
2023/07/19 05:33:42;;;;;;;3.20;3.10;;;23.90;70.60;;;;;;5037810;28;47323;-70
2023/07/19 05:36:10;;;;;;;2.90;2.80;;;23.80;70.40;;;;;;5057523;28;43415;-69
2023/07/19 05:38:38;;;;;;;3.20;3.10;;;23.80;71.90;;;;;;5051179;28;43364;-69
2023/07/19 05:41:07;;;;;;;3.20;3.10;;;23.80;71.10;;;;;;5056709;28;43910;-69
2023/07/19 05:43:35;;;;;;;3.47;3.17;;;23.90;70.80;;;;;;5033560;28;45451;-70
2023/07/19 05:46:04;;;;;;;3.20;3.10;;;24.00;70.50;;;;;;5033590;28;45122;-71
2023/07/19 05:48:33;;;;;;;3.30;3.20;;;24.10;70.20;;;;;;5053365;28;43475;-69
2023/07/19 05:51:01;;;;;;;3.17;3.07;;;24.10;70.00;;;;;;5038873;28;43860;-69
2023/07/19 05:53:31;;;;;;;2.77;2.77;;;24.00;69.90;;;;;;5055411;28;43683;-69
2023/07/19 05:55:59;;;;;;;3.30;3.20;;;24.00;70.10;;;;;;5052772;28;43553;-69
2023/07/19 05:58:30;;;;;;;3.40;3.30;;;23.90;70.50;;;;;;5037545;28;43457;-70
2023/07/19 06:00:57;;;;;;;2.80;2.80;;;23.90;70.60;;;;;;5046919;28;43415;-69
2023/07/19 06:03:26;;;;;;;3.20;3.10;;;23.90;70.60;;;;;;5036622;28;45877;-69
2023/07/19 06:05:54;;;;;;;3.00;2.90;;;23.90;70.50;;;;;;5082638;28;43375;-69
2023/07/19 06:08:22;;;;;;;3.40;3.30;;;23.80;71.00;;;;;;5076480;28;43439;-70
2023/07/19 06:10:52;;;;;;;3.20;3.10;;;23.90;71.10;;;;;;5070244;28;43522;-69
2023/07/19 06:13:21;;;;;;;3.20;3.10;;;23.90;70.80;;;;;;5068426;28;45293;-69
2023/07/19 06:15:50;;;;;;;2.90;2.90;;;24.00;70.60;;;;;;5072743;28;44704;-70
2023/07/19 06:18:18;;;;;;;3.30;3.20;;;24.00;70.40;;;;;;5072694;28;43405;-69
2023/07/19 06:20:46;;;;;;;3.07;2.97;;;23.90;70.50;;;;;;5071805;28;43563;-70
2023/07/19 06:23:14;;;;;;;6.77;3.50;;;23.90;70.70;;;;;;5069101;28;45722;-72
2023/07/19 06:25:43;;;;;;;3.10;3.00;;;23.90;70.60;;;;;;5068255;28;45073;-69
2023/07/19 06:28:11;;;;;;;3.20;3.10;;;23.90;70.60;;;;;;5072579;28;43651;-69
2023/07/19 06:30:39;;;;;;;3.47;3.37;;;23.90;70.60;;;;;;5083993;28;43462;-70
2023/07/19 06:33:10;;;;;;;3.23;3.17;;;23.90;71.00;;;;;;5072764;28;43842;-70
2023/07/19 06:35:38;;;;;;;3.17;3.07;;;23.80;71.00;;;;;;5072857;28;43507;-72
2023/07/19 06:38:06;;;;;;;3.17;3.00;;;23.80;71.00;;;;;;5067550;28;43492;-70
2023/07/19 06:40:34;;;;;;;2.93;2.83;;;23.80;70.90;;;;;;5071310;28;43328;-70
2023/07/19 06:43:04;;;;;;;2.90;2.80;;;23.80;71.30;;;;;;5068441;28;43619;-70
2023/07/19 06:45:32;;;;;;;3.20;3.00;;;23.80;71.40;;;;;;5068200;28;44640;-69
2023/07/19 06:48:02;;;;;;;3.00;2.90;;;23.90;71.10;;;;;;5065907;28;43487;-69
2023/07/19 06:50:32;;;;;;;3.30;3.20;;;23.90;70.80;;;;;;5066155;28;43629;-70
2023/07/19 06:53:00;;;;;;;3.20;3.10;;;24.00;70.40;;;;;;5069374;28;45625;-70
2023/07/19 06:55:28;;;;;;;2.90;2.90;;;24.10;70.20;;;;;;5068329;28;45010;-70
2023/07/19 06:57:56;;;;;;;3.10;3.00;;;24.00;70.20;;;;;;5066940;28;43909;-70
2023/07/19 07:00:25;;;;;;;3.40;3.30;;;24.00;70.10;;;;;;5066047;28;43520;-69
2023/07/19 07:02:53;;;;;;;2.87;2.87;;;24.00;70.80;;;;;;5067214;28;45300;-70
2023/07/19 07:05:21;;;;;;;2.90;2.80;;;23.90;70.70;;;;;;5070519;28;43457;-72
2023/07/19 07:07:50;;;;;;;2.60;2.60;;;23.90;70.60;;;;;;5073125;28;43332;-70
2023/07/19 07:10:19;;;;;;;3.20;3.10;;;23.90;70.80;;;;;;5068560;28;43961;-70
2023/07/19 07:12:47;;;;;;;3.60;3.50;;;23.80;71.00;;;;;;5070956;28;43759;-70
2023/07/19 07:15:15;;;;;;;2.80;2.73;;;23.80;71.20;;;;;;5069513;28;43455;-70
2023/07/19 07:17:44;;;;;;;2.80;2.70;;;23.80;71.20;;;;;;5075385;28;43385;-69
2023/07/19 07:20:12;;;;;;;2.77;2.70;;;23.80;71.10;;;;;;5074288;28;43416;-69
2023/07/19 07:22:41;;;;;;;3.30;3.20;;;23.70;71.10;;;;;;5068774;28;43659;-70
2023/07/19 07:25:10;;;;;;;3.20;3.10;;;23.70;71.50;;;;;;5071878;28;43386;-70
2023/07/19 07:27:38;;;;;;;3.13;3.03;;;23.80;71.30;;;;;;5073688;28;43375;-70
2023/07/19 07:30:09;;;;;;;3.37;3.17;;;23.90;71.00;;;;;;5075292;28;43344;-70
2023/07/19 07:32:37;;;;;;;2.80;2.80;;;24.00;70.60;;;;;;5071130;28;43928;-69
2023/07/19 07:35:06;;;;;;;3.10;3.00;;;24.00;70.30;;;;;;5070908;28;43362;-71
2023/07/19 07:37:35;;;;;;;3.10;3.00;;;24.00;70.30;;;;;;5069055;28;43380;-69
2023/07/19 07:40:08;;;;;;;3.10;3.00;;;24.00;70.30;;;;;;5068781;28;44024;-70
2023/07/19 07:42:40;;;;;;;2.60;2.60;;;23.90;70.60;;;;;;5071890;28;43862;-69
2023/07/19 07:45:09;;;;;;;2.70;2.70;;;23.90;70.90;;;;;;5073268;28;44078;-71
2023/07/19 07:47:37;;;;;;;3.00;2.90;;;23.90;70.90;;;;;;5071127;28;43430;-70
2023/07/19 07:50:08;;;;;;;2.83;2.73;;;23.80;70.80;;;;;;5072348;28;43320;-70
2023/07/19 07:52:36;;;;;;;2.90;2.80;;;23.80;70.90;;;;;;5071570;28;43608;-70
2023/07/19 07:55:08;;;;;;;2.70;2.70;;;23.80;71.50;;;;;;5072676;28;43392;-71
2023/07/19 07:57:37;;;;;;;2.53;2.53;;;23.80;71.40;;;;;;5068799;28;43507;-68
2023/07/19 08:00:10;;;;;;;2.70;2.70;;;23.80;71.30;;;;;;5067577;28;43901;-70
2023/07/19 08:02:38;;;;;;;2.80;2.70;;;23.70;71.20;;;;;;5066788;28;45898;-69
2023/07/19 08:05:10;;;;;;;2.77;2.70;;;23.70;71.60;;;;;;5052154;28;43385;-70
2023/07/19 08:07:38;;;;;;;3.00;2.93;;;23.70;71.60;;;;;;5052126;28;43394;-69
2023/07/19 08:10:07;;;;;;;2.80;2.80;;;23.80;71.20;;;;;;5050411;28;43482;-71
2023/07/19 08:12:34;;;;;;;2.77;2.77;;;23.90;70.90;;;;;;5042961;28;43569;-70
2023/07/19 08:15:03;;;;;;;2.90;2.90;;;24.00;70.60;;;;;;5048547;28;43444;-72
2023/07/19 08:17:32;;;;;;;2.60;2.60;;;24.00;70.40;;;;;;5048455;28;43398;-70
2023/07/19 08:20:00;;;;;;;2.93;2.83;;;24.00;70.50;;;;;;5050942;28;43487;-71
2023/07/19 08:22:28;;;;;;;2.70;2.70;;;24.00;70.60;;;;;;5042157;28;43628;-71
2023/07/19 08:24:56;;;;;;;2.77;2.77;;;23.90;71.00;;;;;;5025523;28;44761;-70
2023/07/19 08:27:39;;;;;;;3.00;2.90;;;23.90;71.10;;;;;;5053759;28;43423;-70
2023/07/19 08:30:15;;;;;;;2.50;2.50;;;23.90;71.10;;;;;;5050627;28;43442;-71
2023/07/19 08:32:45;;;;;;;2.63;2.63;;;23.80;71.00;;;;;;5053167;28;43958;-70
2023/07/19 08:35:14;;;;;;;2.80;2.80;;;23.70;71.30;;;;;;5049943;28;43479;-70
2023/07/19 08:37:42;;;;;;;2.43;2.43;;;23.70;71.60;;;;;;5022767;28;43334;-70
2023/07/19 08:40:12;;;;;;;2.80;2.80;;;23.70;71.50;;;;;;5046742;28;43900;-71
2023/07/19 08:42:40;;;;;;;2.50;2.50;;;23.70;71.40;;;;;;5046563;28;43780;-71
2023/07/19 08:45:09;;;;;;;2.40;2.40;;;23.70;71.20;;;;;;5043314;28;43395;-70
2023/07/19 08:47:38;;;;;;;2.53;2.53;;;23.70;72.00;;;;;;5049537;28;43423;-70
2023/07/19 08:50:08;;;;;;;2.80;2.80;;;23.70;71.90;;;;;;5050538;28;43432;-70
2023/07/19 08:52:36;;;;;;;2.77;2.77;;;23.80;71.40;;;;;;5049533;28;43708;-71
2023/07/19 08:55:05;;;;;;;2.50;2.50;;;23.90;71.00;;;;;;5049931;28;43432;-71
2023/07/19 08:57:33;;;;;;;2.47;2.47;;;24.00;70.70;;;;;;5030562;28;44128;-71
2023/07/19 09:00:01;;;;;;;2.70;2.60;;;24.00;70.70;;;;;;5051205;28;43452;-73
2023/07/19 09:02:30;;;;;;;2.60;2.60;;;24.00;70.70;;;;;;5031052;28;45812;-72
2023/07/19 09:05:10;;;;;;;2.60;2.60;;;23.90;70.80;;;;;;5037166;28;44615;-70
2023/07/19 09:07:39;;;;;;;2.50;2.50;;;23.90;71.20;;;;;;5036214;28;44013;-71
2023/07/19 09:10:08;;;;;;;2.37;2.37;;;23.90;71.20;;;;;;5052648;28;43463;-70
2023/07/19 09:12:37;;;;;;;2.50;2.50;;;23.80;71.00;;;;;;5052886;28;43933;-71
2023/07/19 09:15:06;;;;;;;2.43;2.43;;;23.80;71.10;;;;;;5053525;28;43810;-71
2023/07/19 09:17:38;;;;;;;2.57;2.57;;;23.70;71.60;;;;;;5056044;28;43431;-70
2023/07/19 09:20:09;;;;;;;2.40;2.40;;;23.70;71.60;;;;;;5053391;28;43415;-70
2023/07/19 09:22:37;;;;;;;2.30;2.30;;;23.70;71.40;;;;;;5049876;28;43621;-70
2023/07/19 09:25:05;;;;;;;2.23;2.23;;;23.70;71.20;;;;;;5055374;28;43937;-71
2023/07/19 09:27:34;;;;;;;2.40;2.40;;;23.70;72.00;;;;;;5034824;28;43397;-71
2023/07/19 09:30:03;;;;;;;2.10;2.10;;;23.70;72.00;;;;;;5035557;28;43531;-70
2023/07/19 09:32:31;;;;;;;2.50;2.50;;;23.80;71.40;;;;;;5053590;28;43858;-72
2023/07/19 09:35:02;;;;;;;2.20;2.20;;;23.90;71.10;;;;;;5033497;28;45012;-71
2023/07/19 09:37:31;;;;;;;2.30;2.30;;;24.00;70.90;;;;;;5035092;28;43377;-71
2023/07/19 09:40:02;;;;;;;2.40;2.40;;;24.00;70.70;;;;;;5051612;28;43500;-71
2023/07/19 09:42:31;;;;;;;2.10;2.10;;;24.00;70.70;;;;;;5035365;28;45390;-71
2023/07/19 09:45:00;;;;;;;2.20;2.20;;;24.00;70.90;;;;;;5035110;28;44973;-70
2023/07/19 09:47:28;;;;;;;2.23;2.23;;;23.90;71.20;;;;;;5042924;28;43491;-70
2023/07/19 09:49:57;;;;;;;2.40;2.40;;;23.90;71.30;;;;;;5041946;28;43444;-71
2023/07/19 09:52:26;;;;;;;2.13;2.13;;;23.90;71.20;;;;;;5031574;28;45774;-70
2023/07/19 09:54:56;;;;;;;2.43;2.43;;;23.80;71.00;;;;;;5056176;28;43369;-70
2023/07/19 09:57:25;;;;;;;2.03;2.03;;;23.80;71.60;;;;;;5069820;28;43430;-70
2023/07/19 09:59:53;;;;;;;2.30;2.30;;;23.70;71.60;;;;;;5061900;28;43810;-70
2023/07/19 10:02:22;;;;;;;2.33;2.33;;;23.70;71.60;;;;;;5042857;28;46018;-70
2023/07/19 10:04:51;;;;;;;2.30;2.30;;;23.70;71.40;;;;;;5061847;28;43409;-70
2023/07/19 10:07:20;;;;;;;2.30;2.30;;;23.70;71.30;;;;;;5037497;28;43452;-70
2023/07/19 10:09:49;;;;;;;2.30;2.30;;;23.70;71.90;;;;;;5050606;28;43404;-70
2023/07/19 10:12:25;;;;;;;2.57;2.47;;;23.70;72.00;;;;;;5050404;28;43914;-71
2023/07/19 10:14:54;;;;;;;2.30;2.30;;;23.70;71.70;;;;;;5052944;28;43935;-70
2023/07/19 10:17:22;;;;;;;2.17;2.17;;;23.70;71.40;;;;;;5064370;28;43788;-70
2023/07/19 10:20:08;;;;;;;2.33;2.33;;;23.60;71.90;;;;;;5046022;28;43507;-73
2023/07/19 10:22:55;;;;;;;1.90;1.90;;;23.70;72.00;;;;;;5050133;28;43612;-71
2023/07/19 10:25:25;;;;;;;2.13;2.13;;;23.80;71.70;;;;;;5053932;28;43487;-69
2023/07/19 10:27:58;;;;;;;2.43;2.30;;;23.90;71.20;;;;;;5049972;28;43423;-69
2023/07/19 10:30:45;;;;;;;2.30;2.30;;;24.00;70.80;;;;;;5048214;28;43424;-69
2023/07/19 10:33:14;;;;;;;2.17;2.17;;;24.10;70.60;;;;;;5049976;28;43834;-69
2023/07/19 10:35:42;;;;;;;2.10;2.10;;;24.10;70.90;;;;;;5051553;28;43421;-69
2023/07/19 10:38:14;;;;;;;2.30;2.20;;;24.00;70.60;;;;;;5045117;28;43376;-70
2023/07/19 10:40:45;;;;;;;2.20;2.20;;;24.00;71.10;;;;;;5046696;28;44149;-70
2023/07/19 10:43:15;;;;;;;2.37;2.27;;;23.90;71.00;;;;;;5042849;28;46199;-70
2023/07/19 10:46:03;;;;;;;1.90;1.90;;;23.90;71.00;;;;;;5059172;28;44642;-68
2023/07/19 10:48:32;;;;;;;2.70;2.30;;;23.90;70.90;;;;;;5054950;28;43297;-69
2023/07/19 10:51:01;;;;;;;2.10;2.10;;;23.80;71.50;;;;;;5059858;28;43859;-70
2023/07/19 10:53:29;;;;;;;2.10;2.10;;;23.80;71.50;;;;;;5063076;28;43880;-69
2023/07/19 10:55:59;;;;;;;2.33;2.30;;;23.80;71.50;;;;;;5043154;28;44548;-70
2023/07/19 10:58:31;;;;;;;2.60;2.50;;;23.80;71.30;;;;;;5048173;28;44057;-69
2023/07/19 11:00:59;;;;;;;2.60;2.50;;;23.70;71.60;;;;;;5058270;28;43428;-69
2023/07/19 11:03:27;;;;;;;2.43;2.37;;;23.70;71.90;;;;;;5044863;28;43975;-69
2023/07/19 11:05:55;;;;;;;2.23;2.23;;;23.80;71.70;;;;;;5076244;28;43500;-70
2023/07/19 11:08:23;;;;;;;3.00;2.70;;;23.90;71.40;;;;;;5075802;28;43432;-69
2023/07/19 11:10:52;;;;;;;2.47;2.37;;;24.00;70.90;;;;;;5070376;28;43555;-70
2023/07/19 11:13:21;;;;;;;2.30;2.20;;;24.00;70.70;;;;;;5075964;28;43609;-69
2023/07/19 11:15:54;;;;;;;2.80;2.60;;;24.00;70.60;;;;;;5064524;28;45303;-70
2023/07/19 11:18:27;;;;;;;2.90;2.70;;;24.00;70.70;;;;;;5071069;28;43685;-69
2023/07/19 11:20:55;;;;;;;2.60;2.50;;;23.90;71.20;;;;;;5080649;28;43459;-70
2023/07/19 11:23:23;;;;;;;2.77;2.57;;;23.90;71.20;;;;;;5076082;28;43866;-69
2023/07/19 11:25:51;;;;;;;3.33;2.60;;;23.90;71.10;;;;;;5065660;28;44936;-70
2023/07/19 11:28:35;;;;;;;3.20;2.90;;;23.80;70.90;;;;;;5072151;28;44054;-69
2023/07/19 11:31:05;;;;;;;2.90;2.70;;;23.80;71.30;;;;;;5067614;28;43964;-70
2023/07/19 11:33:36;;;;;;;2.97;2.87;;;23.70;71.60;;;;;;5076966;28;43857;-72
2023/07/19 11:36:07;;;;;;;3.10;2.90;;;23.80;71.50;;;;;;5075103;28;43530;-69
2023/07/19 11:38:37;;;;;;;3.03;2.83;;;23.90;71.10;;;;;;5069026;28;43469;-70
2023/07/19 11:41:05;;;;;;;2.90;2.70;;;24.00;70.90;;;;;;5077346;28;43401;-71
2023/07/19 11:43:33;;;;;;;2.90;2.70;;;24.00;70.80;;;;;;5076720;28;43749;-70
2023/07/19 11:46:01;;;;;;;3.00;2.80;;;24.00;70.60;;;;;;5073043;28;43957;-70
2023/07/19 11:48:31;;;;;;;3.17;2.90;;;23.90;70.60;;;;;;5082137;28;43483;-71
2023/07/19 11:51:00;;;;;;;2.90;2.70;;;23.90;71.20;;;;;;5075249;28;43814;-69
2023/07/19 11:53:30;;;;;;;2.80;2.60;;;23.90;71.20;;;;;;5080422;28;43981;-70
2023/07/19 11:55:58;;;;;;;3.57;3.10;;;23.80;71.00;;;;;;5071255;28;44269;-70
2023/07/19 11:58:29;;;;;;;3.43;3.13;;;23.80;71.00;;;;;;5077050;28;43399;-71
2023/07/19 12:01:12;;;;;;;2.80;2.70;;;23.70;71.60;;;;;;5073567;28;43454;-70
2023/07/19 12:03:42;;;;;;;2.90;2.70;;;23.70;71.60;;;;;;5063153;28;45836;-70
2023/07/19 12:06:10;;;;;;;2.90;2.80;;;23.70;71.50;;;;;;5067589;28;44465;-72
2023/07/19 12:08:39;;;;;;;2.70;2.60;;;23.70;71.20;;;;;;5078443;28;43937;-70
2023/07/19 12:11:07;;;;;;;2.87;2.60;;;23.70;71.80;;;;;;5076940;28;43448;-70
2023/07/19 12:13:35;;;;;;;3.57;3.30;;;23.70;71.80;;;;;;5075685;28;43607;-70
2023/07/19 12:16:03;;;;;;;2.83;2.73;;;23.80;71.50;;;;;;5076126;28;43458;-69
2023/07/19 12:18:31;;;;;;;3.30;3.00;;;23.90;71.10;;;;;;5075015;28;43452;-70
2023/07/19 12:21:00;;;;;;;2.90;2.70;;;24.00;70.70;;;;;;5074861;28;43472;-69
2023/07/19 12:23:30;;;;;;;2.90;2.77;;;24.00;70.30;;;;;;5079383;28;43607;-69
2023/07/19 12:26:02;;;;;;;2.50;2.40;;;24.00;70.50;;;;;;5079078;28;43420;-69
2023/07/19 12:28:30;;;;;;;2.70;2.57;;;24.00;70.50;;;;;;5076423;28;43329;-69
2023/07/19 12:30:58;;;;;;;2.90;2.80;;;23.90;71.10;;;;;;5080767;28;43455;-70
2023/07/19 12:33:26;;;;;;;3.10;2.90;;;23.90;70.90;;;;;;5077643;28;43856;-69
2023/07/19 12:35:54;;;;;;;3.17;2.97;;;23.80;70.90;;;;;;5075813;28;43412;-70
2023/07/19 12:38:24;;;;;;;2.87;2.67;;;23.80;70.80;;;;;;5063968;28;43438;-69
2023/07/19 12:40:52;;;;;;;3.07;2.93;;;23.80;71.50;;;;;;5075983;28;43442;-70
2023/07/19 12:43:20;;;;;;;2.70;2.50;;;23.70;71.50;;;;;;5073648;28;43590;-69
2023/07/19 12:45:48;;;;;;;2.73;2.60;;;23.70;71.40;;;;;;5077265;28;43467;-69
2023/07/19 12:48:16;;;;;;;2.30;2.20;;;23.70;71.20;;;;;;5068373;28;43462;-69
2023/07/19 12:50:44;;;;;;;3.00;2.80;;;23.70;70.70;;;;;;5074496;28;43836;-69
2023/07/19 12:53:12;;;;;;;3.20;3.00;;;23.70;71.70;;;;;;5073428;28;43866;-70
2023/07/19 12:55:41;;;;;;;2.83;2.63;;;23.70;71.60;;;;;;5076161;28;43408;-69
2023/07/19 12:58:10;;;;;;;3.10;2.90;;;23.90;71.10;;;;;;5070801;28;43396;-70